Time;durP1;ratioP1;P1;durP2;ratioP2;P2;SDS_P1;SDS_P2;PMS_P1;PMS_P2;Temp;Humidity;BMP_temperature;BMP_pressure;BME280_temperature;BME280_humidity;BME280_pressure;Samples;Min_cycle;Max_cycle;Signal;HPM_P1;HPM_P2
2022/03/24 00:00:35;;;;;;;19.08;14.10;;;;;;;;;;4986418;28;20194;-79
2022/03/24 00:03:01;;;;;;;20.92;13.70;;;;;;;;;;5002086;28;20210;-80
2022/03/24 00:05:27;;;;;;;23.15;14.73;;;;;;;;;;4986314;28;20192;-80
2022/03/24 00:07:53;;;;;;;21.15;14.85;;;;;;;;;;4987600;28;20415;-80
2022/03/24 00:10:19;;;;;;;21.92;14.85;;;;;;;;;;4977022;28;20439;-80
2022/03/24 00:12:45;;;;;;;20.98;13.75;;;;;;;;;;4981250;28;20926;-80
2022/03/24 00:15:11;;;;;;;25.17;14.77;;;;;;;;;;4985592;28;20234;-79
2022/03/24 00:17:37;;;;;;;21.17;14.88;;;;;;;;;;5001261;28;20183;-79
2022/03/24 00:20:04;;;;;;;22.98;14.55;;;;;;;;;;4986868;28;20230;-79
2022/03/24 00:22:30;;;;;;;22.30;15.35;;;;;;;;;;4987318;28;20191;-79
2022/03/24 00:24:56;;;;;;;21.17;14.13;;;;;;;;;;4986843;28;20195;-79
2022/03/24 00:27:22;;;;;;;22.20;15.13;;;;;;;;;;4986148;28;20192;-79
2022/03/24 00:29:48;;;;;;;20.58;13.75;;;;;;;;;;4986489;28;20215;-79
2022/03/24 00:32:14;;;;;;;23.15;13.60;;;;;;;;;;5000696;28;20180;-79
2022/03/24 00:34:40;;;;;;;17.85;13.00;;;;;;;;;;4985465;28;20203;-79
2022/03/24 00:37:08;;;;;;;25.02;13.98;;;;;;;;;;4998244;28;20553;-79
2022/03/24 00:39:34;;;;;;;19.25;13.60;;;;;;;;;;4977998;28;20191;-79
2022/03/24 00:42:09;;;;;;;21.15;14.05;;;;;;;;;;4985783;28;20334;-79
2022/03/24 00:44:36;;;;;;;17.42;14.13;;;;;;;;;;4986302;28;20728;-79
2022/03/24 00:47:02;;;;;;;19.25;13.40;;;;;;;;;;4998193;28;20189;-79
2022/03/24 00:49:28;;;;;;;22.33;13.35;;;;;;;;;;4986301;28;20180;-79
2022/03/24 00:51:54;;;;;;;20.83;14.13;;;;;;;;;;4985326;28;20258;-79
2022/03/24 00:54:20;;;;;;;19.48;14.13;;;;;;;;;;4985283;28;20692;-79
2022/03/24 00:56:46;;;;;;;25.80;13.70;;;;;;;;;;4984839;28;20654;-79
2022/03/24 00:59:12;;;;;;;18.25;12.80;;;;;;;;;;4986011;28;20186;-79
2022/03/24 01:01:41;;;;;;;18.35;13.43;;;;;;;;;;4985536;28;20172;-79
2022/03/24 01:04:08;;;;;;;21.67;14.93;;;;;;;;;;4985594;28;20198;-79
2022/03/24 01:06:34;;;;;;;26.02;14.60;;;;;;;;;;4986029;28;20191;-79
2022/03/24 01:09:01;;;;;;;17.20;13.05;;;;;;;;;;4985183;28;20262;-79
2022/03/24 01:11:27;;;;;;;19.70;14.25;;;;;;;;;;4985048;28;20283;-79
2022/03/24 01:13:53;;;;;;;18.50;12.57;;;;;;;;;;4986056;28;20194;-79
2022/03/24 01:16:19;;;;;;;20.50;13.35;;;;;;;;;;4985176;28;20192;-79
2022/03/24 01:18:45;;;;;;;19.67;12.40;;;;;;;;;;4985103;28;20200;-78
2022/03/24 01:21:16;;;;;;;22.25;13.63;;;;;;;;;;4984331;28;20527;-79
2022/03/24 01:23:43;;;;;;;18.95;14.52;;;;;;;;;;4984975;28;20543;-79
2022/03/24 01:26:09;;;;;;;17.40;13.60;;;;;;;;;;5000054;28;20239;-79
2022/03/24 01:28:35;;;;;;;20.40;13.05;;;;;;;;;;4984382;28;20180;-79
2022/03/24 01:31:01;;;;;;;21.13;14.27;;;;;;;;;;4984496;28;20247;-79
2022/03/24 01:33:27;;;;;;;22.50;13.73;;;;;;;;;;4985036;28;20190;-79
2022/03/24 01:35:53;;;;;;;19.55;12.88;;;;;;;;;;4985183;28;20184;-79
2022/03/24 01:38:22;;;;;;;23.02;14.07;;;;;;;;;;4993418;28;20193;-79
2022/03/24 01:40:49;;;;;;;24.85;13.35;;;;;;;;;;4980885;28;20526;-79
2022/03/24 01:43:15;;;;;;;21.55;14.40;;;;;;;;;;4983585;28;20278;-79
2022/03/24 01:45:41;;;;;;;26.30;14.00;;;;;;;;;;4995508;28;20705;-79
2022/03/24 01:48:11;;;;;;;19.60;13.20;;;;;;;;;;4974558;28;20229;-79
2022/03/24 01:50:39;;;;;;;15.13;11.82;;;;;;;;;;4983744;28;20251;-79
2022/03/24 01:53:05;;;;;;;21.25;14.95;;;;;;;;;;4999476;28;20171;-79
2022/03/24 01:55:33;;;;;;;21.10;13.98;;;;;;;;;;4985624;28;20203;-79
2022/03/24 01:57:59;;;;;;;15.60;11.70;;;;;;;;;;4980590;28;20210;-79
2022/03/24 02:00:25;;;;;;;20.30;15.00;;;;;;;;;;4976392;28;20206;-79
2022/03/24 02:02:53;;;;;;;18.90;13.77;;;;;;;;;;4985094;28;20179;-79
2022/03/24 02:05:19;;;;;;;18.63;12.93;;;;;;;;;;4984725;28;20286;-79
2022/03/24 02:07:45;;;;;;;20.23;13.68;;;;;;;;;;4983975;28;20662;-79
2022/03/24 02:10:11;;;;;;;21.38;14.63;;;;;;;;;;4973493;28;20196;-79
2022/03/24 02:12:37;;;;;;;18.58;13.07;;;;;;;;;;4979499;28;20227;-79
2022/03/24 02:15:04;;;;;;;20.38;13.80;;;;;;;;;;4984066;28;20238;-79
2022/03/24 02:17:30;;;;;;;22.35;13.40;;;;;;;;;;4984188;28;20263;-78
2022/03/24 02:20:00;;;;;;;21.75;13.32;;;;;;;;;;4996407;28;20177;-79
2022/03/24 02:22:27;;;;;;;16.98;12.55;;;;;;;;;;4982436;28;20183;-79
2022/03/24 02:24:53;;;;;;;19.25;13.40;;;;;;;;;;4984942;28;20191;-79
2022/03/24 02:27:19;;;;;;;19.65;13.93;;;;;;;;;;4983029;28;20271;-79
2022/03/24 02:29:47;;;;;;;17.92;13.45;;;;;;;;;;4968819;28;20188;-79
2022/03/24 02:32:17;;;;;;;16.48;10.98;;;;;;;;;;4984692;28;20167;-79
2022/03/24 02:34:52;;;;;;;18.83;13.27;;;;;;;;;;4982458;28;20208;-79
2022/03/24 02:37:22;;;;;;;16.67;12.50;;;;;;;;;;4995704;28;20212;-79
2022/03/24 02:39:59;;;;;;;14.20;12.40;;;;;;;;;;4977685;28;20215;-79
2022/03/24 02:42:26;;;;;;;18.90;13.40;;;;;;;;;;4984239;28;20242;-79
2022/03/24 02:44:54;;;;;;;17.20;12.43;;;;;;;;;;4982722;28;20188;-79
2022/03/24 02:47:20;;;;;;;21.25;12.25;;;;;;;;;;4997441;28;20227;-79
2022/03/24 02:49:47;;;;;;;19.45;13.70;;;;;;;;;;4984493;28;20188;-79
2022/03/24 02:52:14;;;;;;;16.85;12.43;;;;;;;;;;4983686;28;20195;-79
2022/03/24 02:54:40;;;;;;;19.80;12.95;;;;;;;;;;4984028;28;20210;-79
2022/03/24 02:57:06;;;;;;;21.35;13.88;;;;;;;;;;4982344;28;20214;-79
2022/03/24 02:59:33;;;;;;;17.20;11.90;;;;;;;;;;4981698;28;20176;-78
2022/03/24 03:02:00;;;;;;;16.13;13.15;;;;;;;;;;4991005;28;20191;-78
2022/03/24 03:04:34;;;;;;;19.70;12.82;;;;;;;;;;4998997;28;20254;-79
2022/03/24 03:07:02;;;;;;;17.77;13.05;;;;;;;;;;4984038;28;20183;-79
2022/03/24 03:09:30;;;;;;;17.42;12.23;;;;;;;;;;4977333;28;20665;-79
2022/03/24 03:11:57;;;;;;;17.52;12.40;;;;;;;;;;4982415;28;20625;-79
2022/03/24 03:14:23;;;;;;;18.58;12.60;;;;;;;;;;4998421;28;20200;-79
2022/03/24 03:16:49;;;;;;;14.82;11.82;;;;;;;;;;4985030;28;20223;-79
2022/03/24 03:19:17;;;;;;;19.23;12.52;;;;;;;;;;4982521;28;20239;-79
2022/03/24 03:21:44;;;;;;;19.20;12.07;;;;;;;;;;4983075;28;20286;-79
2022/03/24 03:24:11;;;;;;;17.27;11.95;;;;;;;;;;4981872;28;20180;-79
2022/03/24 03:26:38;;;;;;;18.88;12.90;;;;;;;;;;4982486;28;20286;-79
2022/03/24 03:29:06;;;;;;;16.92;12.10;;;;;;;;;;4983335;28;20178;-79
2022/03/24 03:31:32;;;;;;;19.15;12.32;;;;;;;;;;4984372;28;20168;-79
2022/03/24 03:33:58;;;;;;;19.23;13.88;;;;;;;;;;4983495;28;20204;-79
2022/03/24 03:36:25;;;;;;;17.45;12.52;;;;;;;;;;4982575;28;20188;-79
2022/03/24 03:38:51;;;;;;;15.52;10.75;;;;;;;;;;4983140;28;20188;-79
2022/03/24 03:41:20;;;;;;;16.08;12.98;;;;;;;;;;4983244;28;20180;-79
2022/03/24 03:43:47;;;;;;;18.52;12.45;;;;;;;;;;4980703;28;20195;-79
2022/03/24 03:46:13;;;;;;;17.98;11.93;;;;;;;;;;4981950;28;20222;-79
2022/03/24 03:48:40;;;;;;;20.30;12.52;;;;;;;;;;4982986;28;20188;-79
2022/03/24 03:51:07;;;;;;;14.68;11.73;;;;;;;;;;4997997;28;20192;-79
2022/03/24 03:53:34;;;;;;;20.85;13.07;;;;;;;;;;4983424;28;20207;-79
2022/03/24 03:56:00;;;;;;;22.27;11.45;;;;;;;;;;4995746;28;20584;-79
2022/03/24 03:58:26;;;;;;;17.77;12.27;;;;;;;;;;4983224;28;20176;-79
2022/03/24 04:00:58;;;;;;;16.02;11.98;;;;;;;;;;4994991;28;20264;-79
2022/03/24 04:03:25;;;;;;;17.25;11.05;;;;;;;;;;4975272;28;20200;-79
2022/03/24 04:05:52;;;;;;;16.67;12.30;;;;;;;;;;4983454;28;20180;-79
2022/03/24 04:08:18;;;;;;;16.50;11.63;;;;;;;;;;4982798;28;20326;-79
2022/03/24 04:10:44;;;;;;;17.40;13.60;;;;;;;;;;4986721;28;20227;-79
2022/03/24 04:13:11;;;;;;;17.25;11.55;;;;;;;;;;4976096;28;20681;-79
2022/03/24 04:15:38;;;;;;;16.02;10.77;;;;;;;;;;4990254;28;20208;-79
2022/03/24 04:18:05;;;;;;;15.07;11.45;;;;;;;;;;4991274;28;20184;-79
2022/03/24 04:20:31;;;;;;;14.10;11.20;;;;;;;;;;5000328;28;20283;-79
2022/03/24 04:23:00;;;;;;;15.60;10.45;;;;;;;;;;4987578;28;20179;-79
2022/03/24 04:25:27;;;;;;;16.08;11.27;;;;;;;;;;4986747;28;20263;-79
2022/03/24 04:27:53;;;;;;;16.77;11.25;;;;;;;;;;4986669;28;20191;-78
2022/03/24 04:30:19;;;;;;;16.48;11.30;;;;;;;;;;4984879;28;20274;-79
2022/03/24 04:32:46;;;;;;;16.45;11.20;;;;;;;;;;4986602;28;20202;-79
2022/03/24 04:35:13;;;;;;;17.33;13.27;;;;;;;;;;4999884;28;20212;-79
2022/03/24 04:37:40;;;;;;;15.15;11.85;;;;;;;;;;4987242;28;20172;-79
2022/03/24 04:40:06;;;;;;;16.42;11.55;;;;;;;;;;4985662;28;20282;-79
2022/03/24 04:42:33;;;;;;;12.75;10.43;;;;;;;;;;4985907;28;20179;-79
2022/03/24 04:44:59;;;;;;;18.83;13.23;;;;;;;;;;4984737;28;20511;-79
2022/03/24 04:47:25;;;;;;;16.02;10.40;;;;;;;;;;4986238;28;20214;-79
2022/03/24 04:49:51;;;;;;;18.10;12.07;;;;;;;;;;4986776;28;20190;-79
2022/03/24 04:52:18;;;;;;;16.90;11.15;;;;;;;;;;4981519;28;20193;-79
2022/03/24 04:54:44;;;;;;;18.40;11.50;;;;;;;;;;4980277;28;20203;-79
2022/03/24 04:57:10;;;;;;;17.08;12.07;;;;;;;;;;4986609;28;20190;-79
2022/03/24 04:59:36;;;;;;;16.35;11.20;;;;;;;;;;4985188;28;20270;-79
2022/03/24 05:02:02;;;;;;;19.30;12.65;;;;;;;;;;4994983;28;20211;-78
2022/03/24 05:04:28;;;;;;;16.42;11.93;;;;;;;;;;4986177;28;20176;-78
2022/03/24 05:06:54;;;;;;;17.35;11.80;;;;;;;;;;4985756;28;20223;-79
2022/03/24 05:09:20;;;;;;;16.80;11.75;;;;;;;;;;4985369;28;20251;-79
2022/03/24 05:11:46;;;;;;;18.23;11.15;;;;;;;;;;4984528;28;20227;-78
2022/03/24 05:14:12;;;;;;;17.10;12.02;;;;;;;;;;4985741;28;20290;-79
2022/03/24 05:16:38;;;;;;;15.30;11.43;;;;;;;;;;4985883;28;20238;-79
2022/03/24 05:19:05;;;;;;;18.45;11.65;;;;;;;;;;4985612;28;20182;-79
2022/03/24 05:21:32;;;;;;;17.63;12.48;;;;;;;;;;4984016;28;20195;-79
2022/03/24 05:23:58;;;;;;;19.92;12.48;;;;;;;;;;4983672;28;20243;-78
2022/03/24 05:26:24;;;;;;;16.13;12.48;;;;;;;;;;4999763;28;20188;-79
2022/03/24 05:28:51;;;;;;;17.23;12.18;;;;;;;;;;4985341;28;20267;-79
2022/03/24 05:31:17;;;;;;;16.00;10.90;;;;;;;;;;4980486;28;20195;-79
2022/03/24 05:33:44;;;;;;;18.20;12.35;;;;;;;;;;4984491;28;20203;-79
2022/03/24 05:36:10;;;;;;;18.48;10.88;;;;;;;;;;4985597;28;20188;-79
2022/03/24 05:38:36;;;;;;;16.85;11.68;;;;;;;;;;4984670;28;20251;-79
2022/03/24 05:41:03;;;;;;;16.08;11.73;;;;;;;;;;4984928;28;20188;-79
2022/03/24 05:43:30;;;;;;;18.88;11.40;;;;;;;;;;4985994;28;20180;-79
2022/03/24 05:45:56;;;;;;;17.10;10.63;;;;;;;;;;4980310;28;20211;-78
2022/03/24 05:48:22;;;;;;;26.25;11.82;;;;;;;;;;4976564;28;20180;-79
2022/03/24 05:50:48;;;;;;;17.87;11.73;;;;;;;;;;4984121;28;20235;-79
2022/03/24 05:53:14;;;;;;;19.40;11.32;;;;;;;;;;4982805;28;20419;-79
2022/03/24 05:55:41;;;;;;;19.58;11.73;;;;;;;;;;4985852;28;20211;-79
2022/03/24 05:58:07;;;;;;;15.80;11.88;;;;;;;;;;4984707;28;20704;-79
2022/03/24 06:00:36;;;;;;;15.45;11.73;;;;;;;;;;4983637;28;20214;-79
2022/03/24 06:03:03;;;;;;;20.02;11.68;;;;;;;;;;4984824;28;20543;-79
2022/03/24 06:05:30;;;;;;;16.40;12.13;;;;;;;;;;4985007;28;20195;-79
2022/03/24 06:07:56;;;;;;;23.38;12.55;;;;;;;;;;4996535;28;20188;-78
2022/03/24 06:10:22;;;;;;;19.88;13.38;;;;;;;;;;4984184;28;20203;-79
2022/03/24 06:12:48;;;;;;;14.60;10.70;;;;;;;;;;4980070;28;20192;-79
2022/03/24 06:15:14;;;;;;;17.55;12.00;;;;;;;;;;4975317;28;20262;-79
2022/03/24 06:17:40;;;;;;;17.13;12.77;;;;;;;;;;4983627;28;20191;-79
2022/03/24 06:20:08;;;;;;;18.92;13.00;;;;;;;;;;4997435;28;20184;-78
2022/03/24 06:22:48;;;;;;;21.80;12.82;;;;;;;;;;4982848;28;20176;-79
2022/03/24 06:25:14;;;;;;;26.77;13.77;;;;;;;;;;4984622;28;20627;-79
2022/03/24 06:27:41;;;;;;;18.70;12.50;;;;;;;;;;4984440;28;20460;-79
2022/03/24 06:30:07;;;;;;;17.20;12.82;;;;;;;;;;4984036;28;20234;-79
2022/03/24 06:32:33;;;;;;;18.70;11.52;;;;;;;;;;4982553;28;20203;-79
2022/03/24 06:34:59;;;;;;;22.50;12.95;;;;;;;;;;4996725;28;20204;-79
2022/03/24 06:37:27;;;;;;;19.20;12.40;;;;;;;;;;4983987;28;20180;-79
2022/03/24 06:39:53;;;;;;;19.75;12.23;;;;;;;;;;4984244;28;20176;-79
2022/03/24 06:42:20;;;;;;;20.42;12.93;;;;;;;;;;4982398;28;20238;-79
2022/03/24 06:44:46;;;;;;;20.15;12.93;;;;;;;;;;4984152;28;20224;-79
2022/03/24 06:47:12;;;;;;;20.25;13.73;;;;;;;;;;4983411;28;20183;-79
2022/03/24 06:49:38;;;;;;;17.45;12.63;;;;;;;;;;4984538;28;20179;-79
2022/03/24 06:52:04;;;;;;;15.80;12.43;;;;;;;;;;4979068;28;20194;-79
2022/03/24 06:54:30;;;;;;;19.60;12.93;;;;;;;;;;4987961;28;20209;-79
2022/03/24 06:56:56;;;;;;;24.60;13.50;;;;;;;;;;4987856;28;20186;-79
2022/03/24 06:59:22;;;;;;;20.83;12.35;;;;;;;;;;4983114;28;20198;-79
2022/03/24 07:01:49;;;;;;;22.45;14.60;;;;;;;;;;4982261;28;20179;-79
2022/03/24 07:04:16;;;;;;;28.58;16.52;;;;;;;;;;4982074;28;20183;-79
2022/03/24 07:06:42;;;;;;;24.42;16.52;;;;;;;;;;4982475;28;20180;-79
2022/03/24 07:09:08;;;;;;;30.33;14.18;;;;;;;;;;4983635;28;20188;-79
2022/03/24 07:11:34;;;;;;;20.83;14.70;;;;;;;;;;4981430;28;20274;-79
2022/03/24 07:14:01;;;;;;;23.67;15.35;;;;;;;;;;4982662;28;20208;-79
2022/03/24 07:16:27;;;;;;;23.10;15.10;;;;;;;;;;4984271;28;20179;-79
2022/03/24 07:18:53;;;;;;;21.52;14.18;;;;;;;;;;4983365;28;20183;-79
2022/03/24 07:21:19;;;;;;;22.50;15.80;;;;;;;;;;4983017;28;20609;-79
2022/03/24 07:23:45;;;;;;;23.65;14.60;;;;;;;;;;4982512;28;20191;-79
2022/03/24 07:26:11;;;;;;;22.45;14.77;;;;;;;;;;4998491;28;20172;-79
2022/03/24 07:28:37;;;;;;;22.88;15.45;;;;;;;;;;4981095;28;20238;-81
2022/03/24 07:31:15;;;;;;;23.40;15.13;;;;;;;;;;4979782;28;20278;-80
2022/03/24 07:33:41;;;;;;;25.73;15.57;;;;;;;;;;4981057;28;20179;-79
2022/03/24 07:36:08;;;;;;;20.40;15.25;;;;;;;;;;4983282;28;20187;-79
2022/03/24 07:38:34;;;;;;;23.27;14.55;;;;;;;;;;4972864;28;20196;-80
2022/03/24 07:41:00;;;;;;;27.85;14.82;;;;;;;;;;4995525;28;20169;-79
2022/03/24 07:43:26;;;;;;;19.65;15.80;;;;;;;;;;4981371;28;20711;-79
2022/03/24 07:45:53;;;;;;;25.33;15.77;;;;;;;;;;4984523;28;20251;-79
2022/03/24 07:48:25;;;;;;;30.73;17.15;;;;;;;;;;4984268;28;20444;-79
2022/03/24 07:50:51;;;;;;;24.85;16.15;;;;;;;;;;4984732;28;20638;-80
2022/03/24 07:53:17;;;;;;;26.67;17.58;;;;;;;;;;4984685;28;20183;-79
2022/03/24 07:55:44;;;;;;;30.38;19.27;;;;;;;;;;4987502;28;20306;-80
2022/03/24 07:58:15;;;;;;;24.70;16.73;;;;;;;;;;4986854;28;20657;-80
2022/03/24 08:00:45;;;;;;;22.55;15.40;;;;;;;;;;4985265;28;20192;-78
2022/03/24 08:03:12;;;;;;;23.17;16.20;;;;;;;;;;4996205;28;20188;-79
2022/03/24 08:05:38;;;;;;;24.50;18.02;;;;;;;;;;4983943;28;20192;-80
2022/03/24 08:08:09;;;;;;;27.15;18.60;;;;;;;;;;4984018;28;20223;-80
2022/03/24 08:10:35;;;;;;;32.92;20.02;;;;;;;;;;4986813;28;20220;-80
2022/03/24 08:13:02;;;;;;;28.05;16.77;;;;;;;;;;4981636;28;20215;-79
2022/03/24 08:15:28;;;;;;;28.50;18.02;;;;;;;;;;4981426;28;20806;-79
2022/03/24 08:17:54;;;;;;;28.08;17.92;;;;;;;;;;4984529;28;20191;-79
2022/03/24 08:20:20;;;;;;;27.30;19.03;;;;;;;;;;4984323;28;20264;-80
2022/03/24 08:22:46;;;;;;;30.50;17.70;;;;;;;;;;4986717;28;20474;-80
2022/03/24 08:25:13;;;;;;;31.17;18.25;;;;;;;;;;4986445;28;20179;-79
2022/03/24 08:27:39;;;;;;;29.75;17.00;;;;;;;;;;4986259;28;20176;-79
2022/03/24 08:30:06;;;;;;;24.95;16.80;;;;;;;;;;4984417;28;20441;-79
2022/03/24 08:32:32;;;;;;;30.50;17.63;;;;;;;;;;4983907;28;20188;-80
2022/03/24 08:34:58;;;;;;;22.15;16.98;;;;;;;;;;4986994;28;20226;-80
2022/03/24 08:37:24;;;;;;;26.98;17.02;;;;;;;;;;4985925;28;20215;-79
2022/03/24 08:39:50;;;;;;;23.30;15.73;;;;;;;;;;4983853;28;20187;-79
2022/03/24 08:42:16;;;;;;;25.80;18.17;;;;;;;;;;4981057;28;20432;-78
2022/03/24 08:44:42;;;;;;;22.50;16.00;;;;;;;;;;4980006;28;20222;-78
2022/03/24 08:47:09;;;;;;;30.60;18.20;;;;;;;;;;4994254;28;20435;-78
2022/03/24 08:49:35;;;;;;;26.02;18.63;;;;;;;;;;4985643;28;20693;-78
2022/03/24 08:52:01;;;;;;;26.42;16.58;;;;;;;;;;4984414;28;20210;-78
2022/03/24 08:54:27;;;;;;;22.73;17.60;;;;;;;;;;4984396;28;20204;-78
2022/03/24 08:56:53;;;;;;;24.58;16.80;;;;;;;;;;4982312;28;20184;-78
2022/03/24 08:59:19;;;;;;;25.20;17.77;;;;;;;;;;4984118;28;20542;-79
2022/03/24 09:01:45;;;;;;;24.38;17.13;;;;;;;;;;4983391;28;20319;-78
2022/03/24 09:04:11;;;;;;;28.48;17.58;;;;;;;;;;4976998;28;20203;-78
2022/03/24 09:06:37;;;;;;;29.60;18.80;;;;;;;;;;4989598;28;20215;-78
2022/03/24 09:09:04;;;;;;;26.42;18.83;;;;;;;;;;4998413;28;20557;-78
2022/03/24 09:11:30;;;;;;;26.90;16.83;;;;;;;;;;4999472;28;20259;-78
2022/03/24 09:13:56;;;;;;;30.38;18.48;;;;;;;;;;5001051;28;20212;-78
2022/03/24 09:16:22;;;;;;;30.93;18.40;;;;;;;;;;4983326;28;20243;-78
2022/03/24 09:18:48;;;;;;;29.17;18.63;;;;;;;;;;4981956;28;20442;-78
2022/03/24 09:21:16;;;;;;;30.83;19.60;;;;;;;;;;4982487;28;20252;-78
2022/03/24 09:23:42;;;;;;;30.60;18.63;;;;;;;;;;4984158;28;20202;-78
2022/03/24 09:26:08;;;;;;;27.67;18.45;;;;;;;;;;5000746;28;20172;-79
2022/03/24 09:28:34;;;;;;;28.95;19.70;;;;;;;;;;4985676;28;20172;-79
2022/03/24 09:31:01;;;;;;;25.77;18.08;;;;;;;;;;4984770;28;20401;-78
2022/03/24 09:33:27;;;;;;;27.15;19.90;;;;;;;;;;4980709;28;20180;-78
2022/03/24 09:35:53;;;;;;;29.90;19.85;;;;;;;;;;5000012;28;20211;-78
2022/03/24 09:38:20;;;;;;;37.00;20.35;;;;;;;;;;4999790;28;27710;-78
2022/03/24 09:40:46;;;;;;;29.77;18.55;;;;;;;;;;4984859;28;20172;-79
2022/03/24 09:43:13;;;;;;;28.70;19.55;;;;;;;;;;4980329;28;20193;-79
2022/03/24 09:45:40;;;;;;;30.92;19.02;;;;;;;;;;4983886;28;20188;-79
2022/03/24 09:48:07;;;;;;;28.52;19.05;;;;;;;;;;4973181;28;20191;-78
2022/03/24 09:50:36;;;;;;;32.17;19.55;;;;;;;;;;4983216;28;20689;-79
2022/03/24 09:53:03;;;;;;;28.55;18.98;;;;;;;;;;4984939;28;20194;-79
2022/03/24 09:55:32;;;;;;;30.15;20.30;;;;;;;;;;4983413;28;20203;-78
2022/03/24 09:57:58;;;;;;;28.02;18.27;;;;;;;;;;4990049;28;20176;-79
2022/03/24 10:00:25;;;;;;;30.98;19.42;;;;;;;;;;4978009;28;20258;-78
2022/03/24 10:03:09;;;;;;;31.67;19.25;;;;;;;;;;4980222;28;20192;-78
2022/03/24 10:05:36;;;;;;;32.80;17.95;;;;;;;;;;4984591;28;20188;-79
2022/03/24 10:08:06;;;;;;;24.98;18.75;;;;;;;;;;4980733;28;20188;-78
2022/03/24 10:10:34;;;;;;;33.92;18.38;;;;;;;;;;4984818;28;20530;-78
2022/03/24 10:13:01;;;;;;;30.52;19.30;;;;;;;;;;4981744;28;20657;-78
2022/03/24 10:15:28;;;;;;;31.85;20.38;;;;;;;;;;4978612;28;20214;-79
2022/03/24 10:17:54;;;;;;;31.67;20.52;;;;;;;;;;4987685;28;20256;-79
2022/03/24 10:20:21;;;;;;;32.58;19.60;;;;;;;;;;4984481;28;20192;-79
2022/03/24 10:22:57;;;;;;;31.05;19.20;;;;;;;;;;4985227;28;20182;-79
2022/03/24 10:25:28;;;;;;;27.85;17.88;;;;;;;;;;4979932;28;20192;-78
2022/03/24 10:28:13;;;;;;;29.65;19.33;;;;;;;;;;4988105;28;20189;-79
2022/03/24 10:30:47;;;;;;;32.88;19.17;;;;;;;;;;4992161;28;20184;-78
2022/03/24 10:33:25;;;;;;;26.85;17.88;;;;;;;;;;4973774;28;20219;-78
2022/03/24 10:35:51;;;;;;;32.45;19.17;;;;;;;;;;4984454;28;20214;-78
2022/03/24 10:38:31;;;;;;;25.70;17.20;;;;;;;;;;4983670;28;20215;-78
2022/03/24 10:40:57;;;;;;;33.25;18.70;;;;;;;;;;4981449;28;20426;-79
2022/03/24 10:43:23;;;;;;;27.13;18.57;;;;;;;;;;4983462;28;20220;-78
2022/03/24 10:45:49;;;;;;;32.70;17.25;;;;;;;;;;4976088;28;20499;-78
2022/03/24 10:48:21;;;;;;;28.53;18.90;;;;;;;;;;4992206;28;20253;-78
2022/03/24 10:50:47;;;;;;;29.23;17.85;;;;;;;;;;4983979;28;20434;-78
2022/03/24 10:53:15;;;;;;;30.65;19.63;;;;;;;;;;4983318;28;20251;-78
2022/03/24 10:55:44;;;;;;;32.10;17.60;;;;;;;;;;4983096;28;20271;-78
2022/03/24 10:58:25;;;;;;;27.30;19.25;;;;;;;;;;4983316;28;20243;-77
2022/03/24 11:00:52;;;;;;;27.63;18.75;;;;;;;;;;4982048;28;20183;-78
2022/03/24 11:03:19;;;;;;;28.80;19.55;;;;;;;;;;4982156;28;20180;-77
2022/03/24 11:05:46;;;;;;;33.13;19.40;;;;;;;;;;4982220;28;20190;-77
2022/03/24 11:08:15;;;;;;;37.22;19.63;;;;;;;;;;4984028;28;20187;-77
2022/03/24 11:10:46;;;;;;;30.75;18.98;;;;;;;;;;4980253;28;20318;-78
2022/03/24 11:13:13;;;;;;;30.58;18.90;;;;;;;;;;4982942;28;20299;-78
2022/03/24 11:15:41;;;;;;;27.55;19.70;;;;;;;;;;4979939;28;20271;-77
2022/03/24 11:18:09;;;;;;;28.95;19.38;;;;;;;;;;4982379;28;20184;-78
2022/03/24 11:20:37;;;;;;;28.75;17.30;;;;;;;;;;4972796;28;20171;-78
2022/03/24 11:23:10;;;;;;;30.17;18.85;;;;;;;;;;5001518;28;20183;-77
2022/03/24 11:25:36;;;;;;;29.35;19.05;;;;;;;;;;4987913;28;20184;-78
2022/03/24 11:28:04;;;;;;;28.97;19.30;;;;;;;;;;4986577;28;20203;-78
2022/03/24 11:30:30;;;;;;;29.60;18.77;;;;;;;;;;4982871;28;20443;-78
2022/03/24 11:32:56;;;;;;;33.88;19.77;;;;;;;;;;4985526;28;20188;-78
2022/03/24 11:35:23;;;;;;;28.08;18.00;;;;;;;;;;4984734;28;20208;-78
2022/03/24 11:37:49;;;;;;;25.80;16.08;;;;;;;;;;4987459;28;20251;-77
2022/03/24 11:40:29;;;;;;;27.50;17.65;;;;;;;;;;4985055;28;20179;-77
2022/03/24 11:43:00;;;;;;;30.80;17.15;;;;;;;;;;4985711;28;20219;-79
2022/03/24 11:45:30;;;;;;;26.50;17.58;;;;;;;;;;4986626;28;20200;-77
2022/03/24 11:48:01;;;;;;;28.77;16.88;;;;;;;;;;4987104;28;20189;-79
2022/03/24 11:50:35;;;;;;;25.90;17.75;;;;;;;;;;5000614;28;20197;-78
2022/03/24 11:53:20;;;;;;;28.50;17.63;;;;;;;;;;4985156;28;20668;-77
2022/03/24 11:56:01;;;;;;;23.10;16.93;;;;;;;;;;4985330;28;20218;-78
2022/03/24 11:58:31;;;;;;;21.87;15.73;;;;;;;;;;4986647;28;20839;-77
2022/03/24 12:00:58;;;;;;;22.80;15.83;;;;;;;;;;4985362;28;20447;-74
2022/03/24 12:03:42;;;;;;;22.83;17.43;;;;;;;;;;4986982;28;20796;-76
2022/03/24 12:06:09;;;;;;;22.97;16.60;;;;;;;;;;4985514;28;20413;-78
2022/03/24 12:08:45;;;;;;;21.00;15.77;;;;;;;;;;4985968;28;20405;-77
2022/03/24 12:11:51;;;;;;;21.53;17.37;;;;;;;;;;5000702;28;20451;-77
2022/03/24 12:14:32;;;;;;;21.70;17.30;;;;;;;;;;4981868;28;20511;-76
2022/03/24 12:17:02;;;;;;;23.43;17.40;;;;;;;;;;4981502;28;20424;-75
2022/03/24 12:19:35;;;;;;;22.30;15.80;;;;;;;;;;4986650;28;20426;-79
2022/03/24 12:22:01;;;;;;;21.73;15.73;;;;;;;;;;4982933;28;21144;-78
2022/03/24 12:24:37;;;;;;;21.13;16.00;;;;;;;;;;4981051;28;20418;-78
2022/03/24 12:27:05;;;;;;;20.77;16.47;;;;;;;;;;4975263;28;20414;-79
2022/03/24 12:29:32;;;;;;;25.83;16.47;;;;;;;;;;4983846;28;20515;-77
2022/03/24 12:31:59;;;;;;;23.60;16.70;;;;;;;;;;4983498;28;20432;-79
2022/03/24 12:34:45;;;;;;;25.00;18.20;;;;;;;;;;4980080;28;20479;-79
2022/03/24 12:37:29;;;;;;;22.97;18.40;;;;;;;;;;4967449;28;20879;-75
2022/03/24 12:40:09;;;;;;;21.67;17.13;;;;;;;;;;4983964;28;20440;-78
2022/03/24 12:42:40;;;;;;;20.47;16.33;;;;;;;;;;4984496;28;20517;-78
2022/03/24 12:45:07;;;;;;;20.03;16.20;;;;;;;;;;4985098;28;20422;-78
2022/03/24 12:47:43;;;;;;;18.00;15.67;;;;;;;;;;4984201;28;20467;-78
2022/03/24 12:50:29;;;;;;;19.73;14.50;;;;;;;;;;4986423;28;20419;-77
2022/03/24 12:52:55;;;;;;;17.90;15.23;;;;;;;;;;4986845;28;20427;-78
2022/03/24 12:55:27;;;;;;;18.40;15.40;;;;;;;;;;4985744;28;20566;-77
2022/03/24 12:58:02;;;;;;;18.20;15.40;;;;;;;;;;4985926;28;20459;-78
2022/03/24 13:00:30;;;;;;;15.30;13.80;;;;;;;;;;4981543;28;20470;-77
2022/03/24 13:02:56;;;;;;;18.60;13.70;;;;;;;;;;4974681;28;20462;-78
2022/03/24 13:05:26;;;;;;;16.30;14.60;;;;;;;;;;4985593;28;20916;-78
2022/03/24 13:07:53;;;;;;;16.27;14.57;;;;;;;;;;4985998;28;20494;-80
2022/03/24 13:10:20;;;;;;;16.70;14.20;;;;;;;;;;4981070;28;20448;-78
2022/03/24 13:12:47;;;;;;;18.07;15.37;;;;;;;;;;4984830;28;20461;-78
2022/03/24 13:15:24;;;;;;;18.30;14.67;;;;;;;;;;4984206;28;20458;-78
2022/03/24 13:17:51;;;;;;;16.13;14.43;;;;;;;;;;4984569;28;20465;-78
2022/03/24 13:20:21;;;;;;;19.03;14.50;;;;;;;;;;4984536;28;20427;-78
2022/03/24 13:22:50;;;;;;;17.80;15.57;;;;;;;;;;4983004;28;20431;-78
2022/03/24 13:25:17;;;;;;;16.57;14.43;;;;;;;;;;4983469;28;20944;-80
2022/03/24 13:27:45;;;;;;;15.77;14.17;;;;;;;;;;4984789;28;20443;-80
2022/03/24 13:30:14;;;;;;;15.67;14.07;;;;;;;;;;4982412;28;20439;-78
2022/03/24 13:32:41;;;;;;;15.07;13.73;;;;;;;;;;4999685;28;20822;-77
2022/03/24 13:35:16;;;;;;;14.43;13.03;;;;;;;;;;4985006;28;20494;-77
2022/03/24 13:37:44;;;;;;;14.57;13.37;;;;;;;;;;4984133;28;20423;-77
2022/03/24 13:40:11;;;;;;;15.80;14.30;;;;;;;;;;4982852;28;20445;-79
2022/03/24 13:42:38;;;;;;;17.67;14.17;;;;;;;;;;4998857;28;20475;-77
2022/03/24 13:45:05;;;;;;;16.90;14.10;;;;;;;;;;4985270;28;20442;-79
2022/03/24 13:47:31;;;;;;;16.03;14.33;;;;;;;;;;4983613;28;20442;-78
2022/03/24 13:49:59;;;;;;;15.93;14.30;;;;;;;;;;5000794;28;20940;-78
2022/03/24 13:52:38;;;;;;;14.47;12.93;;;;;;;;;;4983683;28;20443;-79
2022/03/24 13:55:06;;;;;;;14.50;13.00;;;;;;;;;;4983108;28;20466;-78
2022/03/24 13:57:32;;;;;;;16.60;13.20;;;;;;;;;;4984518;28;20439;-81
2022/03/24 13:59:58;;;;;;;16.07;14.40;;;;;;;;;;4984535;28;20458;-79
2022/03/24 14:02:27;;;;;;;15.57;14.10;;;;;;;;;;4999792;28;20794;-79
2022/03/24 14:05:13;;;;;;;14.50;13.10;;;;;;;;;;4985013;28;20415;-79
2022/03/24 14:07:57;;;;;;;17.43;13.70;;;;;;;;;;4985861;28;20519;-79
2022/03/24 14:10:41;;;;;;;16.03;14.33;;;;;;;;;;4980153;28;20932;-81
2022/03/24 14:13:12;;;;;;;15.77;14.27;;;;;;;;;;4982201;28;20455;-80
2022/03/24 14:15:38;;;;;;;15.30;13.10;;;;;;;;;;4983790;28;20462;-80
2022/03/24 14:18:18;;;;;;;15.23;13.23;;;;;;;;;;4984362;28;20439;-80
2022/03/24 14:20:45;;;;;;;15.37;13.23;;;;;;;;;;4982784;28;20443;-80